sensor_id;sensor_type;location;lat;lon;timestamp;pressure;altitude;pressure_sealevel;temperature;humidity
21658;BME280;10990;48.174;9.782;2023-06-22T00:02:02;92608.72;;;19.18;100.00
21658;BME280;10990;48.174;9.782;2023-06-22T00:04:29;92576.81;;;19.21;100.00
21658;BME280;10990;48.174;9.782;2023-06-22T00:06:55;92542.78;;;19.22;100.00
21658;BME280;10990;48.174;9.782;2023-06-22T00:09:22;92532.38;;;19.15;100.00
21658;BME280;10990;48.174;9.782;2023-06-22T00:11:49;92499.09;;;19.21;100.00
21658;BME280;10990;48.174;9.782;2023-06-22T00:14:17;92471.22;;;19.22;100.00
21658;BME280;10990;48.174;9.782;2023-06-22T00:16:43;92451.97;;;19.20;100.00
21658;BME280;10990;48.174;9.782;2023-06-22T00:19:13;92431.41;;;19.11;100.00
21658;BME280;10990;48.174;9.782;2023-06-22T00:21:40;92414.03;;;19.08;100.00
21658;BME280;10990;48.174;9.782;2023-06-22T00:24:07;92395.31;;;19.03;100.00
21658;BME280;10990;48.174;9.782;2023-06-22T00:26:34;92358.88;;;19.07;100.00
21658;BME280;10990;48.174;9.782;2023-06-22T00:29:01;92343.03;;;19.11;100.00
21658;BME280;10990;48.174;9.782;2023-06-22T00:31:31;92324.50;;;19.14;100.00
21658;BME280;10990;48.174;9.782;2023-06-22T00:33:58;92319.22;;;19.09;100.00
21658;BME280;10990;48.174;9.782;2023-06-22T00:36:25;92317.66;;;19.03;100.00
21658;BME280;10990;48.174;9.782;2023-06-22T00:38:52;92297.28;;;19.07;100.00
21658;BME280;10990;48.174;9.782;2023-06-22T00:41:19;92280.63;;;19.10;100.00
21658;BME280;10990;48.174;9.782;2023-06-22T00:43:45;92274.88;;;18.98;100.00
21658;BME280;10990;48.174;9.782;2023-06-22T00:46:12;92255.63;;;18.96;100.00
21658;BME280;10990;48.174;9.782;2023-06-22T00:48:40;92242.84;;;18.88;100.00
21658;BME280;10990;48.174;9.782;2023-06-22T00:51:09;92216.28;;;18.91;100.00
21658;BME280;10990;48.174;9.782;2023-06-22T00:53:38;92205.31;;;18.93;100.00
21658;BME280;10990;48.174;9.782;2023-06-22T00:56:06;92186.53;;;18.98;100.00
21658;BME280;10990;48.174;9.782;2023-06-22T00:58:35;92179.75;;;19.00;100.00
21658;BME280;10990;48.174;9.782;2023-06-22T01:01:02;92190.63;;;18.90;100.00
21658;BME280;10990;48.174;9.782;2023-06-22T01:03:29;92171.66;;;18.87;100.00
21658;BME280;10990;48.174;9.782;2023-06-22T01:06:02;92162.00;;;18.86;100.00
21658;BME280;10990;48.174;9.782;2023-06-22T01:08:38;92147.84;;;18.85;100.00
21658;BME280;10990;48.174;9.782;2023-06-22T01:11:16;92136.13;;;18.81;100.00
21658;BME280;10990;48.174;9.782;2023-06-22T01:13:50;92124.38;;;18.77;100.00
21658;BME280;10990;48.174;9.782;2023-06-22T01:16:23;92093.63;;;18.74;100.00
21658;BME280;10990;48.174;9.782;2023-06-22T01:18:52;92058.25;;;18.77;100.00
21658;BME280;10990;48.174;9.782;2023-06-22T01:21:23;92060.47;;;18.70;100.00
21658;BME280;10990;48.174;9.782;2023-06-22T01:23:58;92023.16;;;18.79;100.00
21658;BME280;10990;48.174;9.782;2023-06-22T01:26:35;92021.38;;;18.69;100.00
21658;BME280;10990;48.174;9.782;2023-06-22T01:29:06;92022.28;;;18.65;100.00
21658;BME280;10990;48.174;9.782;2023-06-22T01:31:34;92003.22;;;18.66;100.00
21658;BME280;10990;48.174;9.782;2023-06-22T01:34:04;91981.34;;;18.64;100.00
21658;BME280;10990;48.174;9.782;2023-06-22T01:36:32;91960.41;;;18.66;100.00
21658;BME280;10990;48.174;9.782;2023-06-22T01:39:00;91951.09;;;18.64;100.00
21658;BME280;10990;48.174;9.782;2023-06-22T01:41:30;91947.41;;;18.59;100.00
21658;BME280;10990;48.174;9.782;2023-06-22T01:43:59;91913.19;;;18.56;100.00
21658;BME280;10990;48.174;9.782;2023-06-22T01:46:28;91911.03;;;18.58;100.00
21658;BME280;10990;48.174;9.782;2023-06-22T01:48:55;91898.53;;;18.54;100.00
21658;BME280;10990;48.174;9.782;2023-06-22T01:51:22;91880.19;;;18.61;100.00
21658;BME280;10990;48.174;9.782;2023-06-22T01:53:49;91873.28;;;18.60;100.00
21658;BME280;10990;48.174;9.782;2023-06-22T01:56:18;91866.47;;;18.68;100.00
21658;BME280;10990;48.174;9.782;2023-06-22T01:58:49;91883.09;;;18.65;100.00
21658;BME280;10990;48.174;9.782;2023-06-22T02:01:22;91889.84;;;18.62;100.00
21658;BME280;10990;48.174;9.782;2023-06-22T02:03:57;91883.97;;;18.60;100.00
21658;BME280;10990;48.174;9.782;2023-06-22T02:06:32;91885.66;;;18.56;100.00
21658;BME280;10990;48.174;9.782;2023-06-22T02:09:03;91886.00;;;18.49;100.00
21658;BME280;10990;48.174;9.782;2023-06-22T02:11:33;91875.31;;;18.49;100.00
21658;BME280;10990;48.174;9.782;2023-06-22T02:14:01;91865.97;;;18.47;100.00
21658;BME280;10990;48.174;9.782;2023-06-22T02:16:30;91854.22;;;18.48;100.00
21658;BME280;10990;48.174;9.782;2023-06-22T02:19:01;91846.19;;;18.48;100.00
21658;BME280;10990;48.174;9.782;2023-06-22T02:21:28;91844.38;;;18.43;100.00
21658;BME280;10990;48.174;9.782;2023-06-22T02:23:55;91832.44;;;18.35;100.00
21658;BME280;10990;48.174;9.782;2023-06-22T02:26:22;91812.84;;;18.40;100.00
21658;BME280;10990;48.174;9.782;2023-06-22T02:28:50;91798.38;;;18.41;100.00
21658;BME280;10990;48.174;9.782;2023-06-22T02:31:17;91792.88;;;18.51;100.00
21658;BME280;10990;48.174;9.782;2023-06-22T02:33:45;91789.50;;;18.46;100.00
21658;BME280;10990;48.174;9.782;2023-06-22T02:36:13;91794.34;;;18.44;100.00
21658;BME280;10990;48.174;9.782;2023-06-22T02:38:41;91797.00;;;18.44;100.00
21658;BME280;10990;48.174;9.782;2023-06-22T02:41:11;91787.69;;;18.41;100.00
21658;BME280;10990;48.174;9.782;2023-06-22T02:43:38;91796.22;;;18.43;100.00
21658;BME280;10990;48.174;9.782;2023-06-22T02:46:05;91806.13;;;18.43;100.00
21658;BME280;10990;48.174;9.782;2023-06-22T02:48:32;91808.00;;;18.42;100.00
21658;BME280;10990;48.174;9.782;2023-06-22T02:50:59;91807.78;;;18.38;100.00
21658;BME280;10990;48.174;9.782;2023-06-22T02:53:27;91793.22;;;18.31;100.00
21658;BME280;10990;48.174;9.782;2023-06-22T02:55:54;91783.81;;;18.33;100.00
21658;BME280;10990;48.174;9.782;2023-06-22T02:58:20;91794.28;;;18.30;100.00
21658;BME280;10990;48.174;9.782;2023-06-22T03:00:47;91781.69;;;18.17;100.00
21658;BME280;10990;48.174;9.782;2023-06-22T03:03:14;91761.84;;;18.18;100.00
21658;BME280;10990;48.174;9.782;2023-06-22T03:05:40;91733.75;;;18.20;100.00
21658;BME280;10990;48.174;9.782;2023-06-22T03:08:08;91732.53;;;18.12;100.00
21658;BME280;10990;48.174;9.782;2023-06-22T03:10:36;91712.16;;;18.17;100.00
21658;BME280;10990;48.174;9.782;2023-06-22T03:13:04;91708.66;;;18.02;100.00
21658;BME280;10990;48.174;9.782;2023-06-22T03:15:31;91695.28;;;18.02;100.00
21658;BME280;10990;48.174;9.782;2023-06-22T03:17:59;91682.78;;;17.98;100.00
21658;BME280;10990;48.174;9.782;2023-06-22T03:20:26;91650.81;;;18.06;100.00
21658;BME280;10990;48.174;9.782;2023-06-22T03:22:59;91636.94;;;18.04;100.00
21658;BME280;10990;48.174;9.782;2023-06-22T03:25:26;91614.41;;;18.10;100.00
21658;BME280;10990;48.174;9.782;2023-06-22T03:27:55;91620.31;;;18.07;100.00
21658;BME280;10990;48.174;9.782;2023-06-22T03:30:22;91612.78;;;18.09;100.00
21658;BME280;10990;48.174;9.782;2023-06-22T03:32:49;91606.66;;;18.09;100.00
21658;BME280;10990;48.174;9.782;2023-06-22T03:35:16;91587.34;;;18.12;100.00
21658;BME280;10990;48.174;9.782;2023-06-22T03:37:43;91579.06;;;18.13;100.00
21658;BME280;10990;48.174;9.782;2023-06-22T03:40:10;91586.94;;;18.19;100.00
21658;BME280;10990;48.174;9.782;2023-06-22T03:42:37;91580.13;;;18.26;100.00
21658;BME280;10990;48.174;9.782;2023-06-22T03:45:07;91596.84;;;18.04;100.00
21658;BME280;10990;48.174;9.782;2023-06-22T03:47:33;91590.13;;;18.07;100.00
21658;BME280;10990;48.174;9.782;2023-06-22T03:50:00;91567.94;;;18.20;100.00
21658;BME280;10990;48.174;9.782;2023-06-22T03:52:29;91555.38;;;18.34;100.00
21658;BME280;10990;48.174;9.782;2023-06-22T03:54:55;91581.84;;;18.36;100.00
21658;BME280;10990;48.174;9.782;2023-06-22T03:57:22;91618.06;;;18.14;100.00
21658;BME280;10990;48.174;9.782;2023-06-22T03:59:50;91615.66;;;18.13;100.00
21658;BME280;10990;48.174;9.782;2023-06-22T04:02:18;91605.19;;;18.17;100.00
21658;BME280;10990;48.174;9.782;2023-06-22T04:04:44;91621.13;;;18.08;100.00
21658;BME280;10990;48.174;9.782;2023-06-22T04:07:11;91621.13;;;18.08;100.00
21658;BME280;10990;48.174;9.782;2023-06-22T04:09:38;91622.09;;;17.98;100.00
21658;BME280;10990;48.174;9.782;2023-06-22T04:12:05;91618.63;;;17.98;100.00
21658;BME280;10990;48.174;9.782;2023-06-22T04:14:32;91601.31;;;18.09;100.00
21658;BME280;10990;48.174;9.782;2023-06-22T04:16:59;91606.56;;;18.00;100.00
21658;BME280;10990;48.174;9.782;2023-06-22T04:19:27;91587.16;;;18.08;100.00
21658;BME280;10990;48.174;9.782;2023-06-22T04:21:53;91597.25;;;18.11;100.00
21658;BME280;10990;48.174;9.782;2023-06-22T04:24:20;91603.13;;;18.13;100.00
21658;BME280;10990;48.174;9.782;2023-06-22T04:26:47;91592.81;;;18.21;100.00
21658;BME280;10990;48.174;9.782;2023-06-22T04:29:14;91591.63;;;18.27;100.00
21658;BME280;10990;48.174;9.782;2023-06-22T04:31:40;91583.41;;;18.37;100.00
21658;BME280;10990;48.174;9.782;2023-06-22T04:34:07;91595.97;;;18.23;100.00
21658;BME280;10990;48.174;9.782;2023-06-22T04:36:37;91581.03;;;18.35;100.00
21658;BME280;10990;48.174;9.782;2023-06-22T04:39:05;91587.47;;;18.48;100.00
21658;BME280;10990;48.174;9.782;2023-06-22T04:41:32;91579.03;;;18.69;100.00
21658;BME280;10990;48.174;9.782;2023-06-22T04:44:11;91593.31;;;18.78;100.00
21658;BME280;10990;48.174;9.782;2023-06-22T04:46:38;91616.31;;;18.79;100.00
21658;BME280;10990;48.174;9.782;2023-06-22T04:49:06;91636.13;;;18.78;100.00
21658;BME280;10990;48.174;9.782;2023-06-22T04:51:39;91660.31;;;18.73;100.00
21658;BME280;10990;48.174;9.782;2023-06-22T04:54:06;91660.22;;;18.92;100.00
21658;BME280;10990;48.174;9.782;2023-06-22T04:56:33;91675.78;;;19.03;100.00
21658;BME280;10990;48.174;9.782;2023-06-22T04:59:00;91718.91;;;18.88;100.00
21658;BME280;10990;48.174;9.782;2023-06-22T05:01:28;91695.22;;;19.09;100.00
21658;BME280;10990;48.174;9.782;2023-06-22T05:03:56;91719.69;;;19.30;100.00
21658;BME280;10990;48.174;9.782;2023-06-22T05:06:24;91736.44;;;19.49;100.00
21658;BME280;10990;48.174;9.782;2023-06-22T05:08:53;91792.53;;;19.32;100.00
21658;BME280;10990;48.174;9.782;2023-06-22T05:11:23;91821.06;;;19.23;100.00
21658;BME280;10990;48.174;9.782;2023-06-22T05:13:49;91833.00;;;19.31;100.00
21658;BME280;10990;48.174;9.782;2023-06-22T05:16:16;91840.34;;;19.53;100.00
21658;BME280;10990;48.174;9.782;2023-06-22T05:18:43;91869.22;;;19.56;100.00
21658;BME280;10990;48.174;9.782;2023-06-22T05:21:09;91898.25;;;19.67;100.00
21658;BME280;10990;48.174;9.782;2023-06-22T05:23:36;91958.44;;;19.56;100.00
21658;BME280;10990;48.174;9.782;2023-06-22T05:26:04;91982.81;;;19.60;100.00
21658;BME280;10990;48.174;9.782;2023-06-22T05:28:34;91983.97;;;20.00;100.00
21658;BME280;10990;48.174;9.782;2023-06-22T05:31:01;92056.66;;;19.99;100.00
21658;BME280;10990;48.174;9.782;2023-06-22T05:33:29;92074.69;;;20.40;100.00
21658;BME280;10990;48.174;9.782;2023-06-22T05:35:56;92159.63;;;20.17;100.00
21658;BME280;10990;48.174;9.782;2023-06-22T05:38:22;92205.00;;;20.13;100.00
21658;BME280;10990;48.174;9.782;2023-06-22T05:40:49;92225.91;;;20.16;100.00
21658;BME280;10990;48.174;9.782;2023-06-22T05:43:17;92300.00;;;19.93;100.00
21658;BME280;10990;48.174;9.782;2023-06-22T05:45:44;92337.63;;;20.07;100.00
21658;BME280;10990;48.174;9.782;2023-06-22T05:48:10;92384.75;;;20.13;100.00
21658;BME280;10990;48.174;9.782;2023-06-22T05:50:37;92413.13;;;20.19;100.00
21658;BME280;10990;48.174;9.782;2023-06-22T05:53:04;92451.53;;;20.38;100.00
21658;BME280;10990;48.174;9.782;2023-06-22T05:55:32;92499.94;;;20.71;100.00
21658;BME280;10990;48.174;9.782;2023-06-22T05:57:59;92557.59;;;20.79;100.00
21658;BME280;10990;48.174;9.782;2023-06-22T06:00:27;92597.34;;;21.20;100.00
21658;BME280;10990;48.174;9.782;2023-06-22T06:02:53;92681.63;;;21.29;100.00
21658;BME280;10990;48.174;9.782;2023-06-22T06:05:20;92756.09;;;21.53;100.00
21658;BME280;10990;48.174;9.782;2023-06-22T06:07:49;92827.91;;;22.14;100.00
21658;BME280;10990;48.174;9.782;2023-06-22T06:10:15;92930.56;;;22.31;100.00
21658;BME280;10990;48.174;9.782;2023-06-22T06:12:42;93047.59;;;22.39;100.00
21658;BME280;10990;48.174;9.782;2023-06-22T06:15:09;93163.81;;;21.88;100.00
21658;BME280;10990;48.174;9.782;2023-06-22T06:17:45;93142.69;;;22.05;100.00
21658;BME280;10990;48.174;9.782;2023-06-22T06:20:12;93193.25;;;22.43;100.00
21658;BME280;10990;48.174;9.782;2023-06-22T06:22:38;93293.25;;;22.94;100.00
21658;BME280;10990;48.174;9.782;2023-06-22T06:25:06;93380.50;;;22.69;100.00
21658;BME280;10990;48.174;9.782;2023-06-22T06:27:33;93458.88;;;22.33;100.00
21658;BME280;10990;48.174;9.782;2023-06-22T06:29:59;93483.59;;;22.95;100.00
21658;BME280;10990;48.174;9.782;2023-06-22T06:32:26;93582.81;;;22.88;100.00
21658;BME280;10990;48.174;9.782;2023-06-22T06:34:54;93603.25;;;22.99;100.00
21658;BME280;10990;48.174;9.782;2023-06-22T06:37:21;93671.19;;;23.07;100.00
21658;BME280;10990;48.174;9.782;2023-06-22T06:39:48;93688.44;;;23.65;100.00
21658;BME280;10990;48.174;9.782;2023-06-22T06:42:14;93782.16;;;23.44;100.00
21658;BME280;10990;48.174;9.782;2023-06-22T06:44:41;93847.94;;;24.68;100.00
21658;BME280;10990;48.174;9.782;2023-06-22T06:47:08;93966.28;;;24.81;100.00
21658;BME280;10990;48.174;9.782;2023-06-22T06:49:34;94087.22;;;24.60;100.00
21658;BME280;10990;48.174;9.782;2023-06-22T06:52:03;94155.41;;;24.47;100.00
21658;BME280;10990;48.174;9.782;2023-06-22T06:54:30;94191.06;;;24.03;100.00
21658;BME280;10990;48.174;9.782;2023-06-22T06:56:56;94229.94;;;24.07;100.00
21658;BME280;10990;48.174;9.782;2023-06-22T06:59:23;94275.38;;;24.46;100.00
21658;BME280;10990;48.174;9.782;2023-06-22T07:01:50;94399.13;;;24.34;100.00
21658;BME280;10990;48.174;9.782;2023-06-22T07:04:16;94384.31;;;24.57;100.00
21658;BME280;10990;48.174;9.782;2023-06-22T07:06:43;94434.91;;;24.72;100.00
21658;BME280;10990;48.174;9.782;2023-06-22T07:09:11;94523.59;;;24.75;100.00
21658;BME280;10990;48.174;9.782;2023-06-22T07:11:38;94530.72;;;25.01;100.00
21658;BME280;10990;48.174;9.782;2023-06-22T07:14:05;94547.69;;;24.76;100.00
21658;BME280;10990;48.174;9.782;2023-06-22T07:16:31;94578.88;;;25.10;100.00
21658;BME280;10990;48.174;9.782;2023-06-22T07:18:58;94640.47;;;25.60;100.00
21658;BME280;10990;48.174;9.782;2023-06-22T07:21:25;94734.91;;;25.41;100.00
21658;BME280;10990;48.174;9.782;2023-06-22T07:23:52;94793.50;;;25.78;100.00
21658;BME280;10990;48.174;9.782;2023-06-22T07:26:20;94872.78;;;25.58;100.00
21658;BME280;10990;48.174;9.782;2023-06-22T07:28:47;94923.06;;;26.59;100.00
21658;BME280;10990;48.174;9.782;2023-06-22T07:31:16;94977.84;;;25.93;100.00
21658;BME280;10990;48.174;9.782;2023-06-22T07:33:42;95045.38;;;26.58;100.00
21658;BME280;10990;48.174;9.782;2023-06-22T07:36:09;95085.38;;;26.35;100.00
21658;BME280;10990;48.174;9.782;2023-06-22T07:38:36;95163.00;;;27.52;100.00
21658;BME280;10990;48.174;9.782;2023-06-22T07:41:02;95201.09;;;26.57;100.00
21658;BME280;10990;48.174;9.782;2023-06-22T07:43:32;95187.94;;;26.81;100.00
21658;BME280;10990;48.174;9.782;2023-06-22T07:45:59;95197.84;;;26.23;100.00
21658;BME280;10990;48.174;9.782;2023-06-22T07:48:26;95217.56;;;26.88;100.00
21658;BME280;10990;48.174;9.782;2023-06-22T07:50:53;95239.03;;;26.89;100.00
21658;BME280;10990;48.174;9.782;2023-06-22T07:53:20;95199.78;;;26.27;100.00
21658;BME280;10990;48.174;9.782;2023-06-22T07:55:46;95210.34;;;26.61;100.00
21658;BME280;10990;48.174;9.782;2023-06-22T07:58:13;95257.22;;;26.94;100.00
21658;BME280;10990;48.174;9.782;2023-06-22T08:00:42;95360.72;;;27.98;100.00
21658;BME280;10990;48.174;9.782;2023-06-22T08:03:09;95420.19;;;28.52;100.00
21658;BME280;10990;48.174;9.782;2023-06-22T08:05:35;95434.69;;;28.10;100.00
21658;BME280;10990;48.174;9.782;2023-06-22T08:08:02;95408.91;;;27.65;100.00
21658;BME280;10990;48.174;9.782;2023-06-22T08:10:29;95357.00;;;28.39;100.00
21658;BME280;10990;48.174;9.782;2023-06-22T08:12:56;95399.91;;;27.54;100.00
21658;BME280;10990;48.174;9.782;2023-06-22T08:15:22;95384.03;;;28.77;100.00
21658;BME280;10990;48.174;9.782;2023-06-22T08:17:50;95475.72;;;28.61;100.00
21658;BME280;10990;48.174;9.782;2023-06-22T08:20:18;95510.06;;;28.82;100.00
21658;BME280;10990;48.174;9.782;2023-06-22T08:22:44;95536.44;;;28.67;100.00
21658;BME280;10990;48.174;9.782;2023-06-22T08:25:11;95537.16;;;29.97;100.00
21658;BME280;10990;48.174;9.782;2023-06-22T08:27:38;95611.31;;;30.40;100.00
21658;BME280;10990;48.174;9.782;2023-06-22T08:30:06;95596.84;;;28.69;100.00
21658;BME280;10990;48.174;9.782;2023-06-22T08:32:33;95563.16;;;28.32;100.00
21658;BME280;10990;48.174;9.782;2023-06-22T08:35:01;95560.63;;;28.10;100.00
21658;BME280;10990;48.174;9.782;2023-06-22T08:37:28;95592.00;;;28.86;100.00
21658;BME280;10990;48.174;9.782;2023-06-22T08:39:58;95608.00;;;30.53;100.00
21658;BME280;10990;48.174;9.782;2023-06-22T08:42:25;95660.19;;;31.37;100.00
21658;BME280;10990;48.174;9.782;2023-06-22T08:44:51;95684.63;;;32.07;100.00
21658;BME280;10990;48.174;9.782;2023-06-22T08:47:19;95706.91;;;31.40;100.00
21658;BME280;10990;48.174;9.782;2023-06-22T08:49:46;95713.75;;;31.38;100.00
21658;BME280;10990;48.174;9.782;2023-06-22T08:52:15;95730.44;;;32.30;100.00
21658;BME280;10990;48.174;9.782;2023-06-22T08:54:41;95729.31;;;31.97;100.00
21658;BME280;10990;48.174;9.782;2023-06-22T08:57:08;95731.34;;;32.15;100.00
21658;BME280;10990;48.174;9.782;2023-06-22T08:59:35;95736.25;;;32.87;100.00
21658;BME280;10990;48.174;9.782;2023-06-22T09:02:02;95743.63;;;33.64;100.00
21658;BME280;10990;48.174;9.782;2023-06-22T09:04:28;95761.66;;;33.46;100.00
21658;BME280;10990;48.174;9.782;2023-06-22T09:06:55;95762.34;;;32.06;100.00
21658;BME280;10990;48.174;9.782;2023-06-22T09:09:23;95768.94;;;32.05;100.00
21658;BME280;10990;48.174;9.782;2023-06-22T09:11:50;95774.19;;;33.04;100.00
21658;BME280;10990;48.174;9.782;2023-06-22T09:14:17;95789.94;;;33.41;100.00
21658;BME280;10990;48.174;9.782;2023-06-22T09:16:44;95792.16;;;33.39;100.00
21658;BME280;10990;48.174;9.782;2023-06-22T09:19:11;95784.25;;;32.45;100.00
21658;BME280;10990;48.174;9.782;2023-06-22T09:21:37;95786.69;;;32.86;100.00
21658;BME280;10990;48.174;9.782;2023-06-22T09:24:05;95788.50;;;32.27;100.00
21658;BME280;10990;48.174;9.782;2023-06-22T09:26:33;95797.75;;;33.05;100.00
21658;BME280;10990;48.174;9.782;2023-06-22T09:29:00;95804.09;;;32.66;100.00
21658;BME280;10990;48.174;9.782;2023-06-22T09:31:26;95791.22;;;32.27;100.00
21658;BME280;10990;48.174;9.782;2023-06-22T09:33:53;95775.81;;;31.97;100.00
21658;BME280;10990;48.174;9.782;2023-06-22T09:36:20;95788.66;;;32.41;100.00
21658;BME280;10990;48.174;9.782;2023-06-22T09:38:47;95792.16;;;32.86;100.00
21658;BME280;10990;48.174;9.782;2023-06-22T09:41:21;95783.50;;;32.34;100.00
21658;BME280;10990;48.174;9.782;2023-06-22T09:43:49;95784.00;;;32.47;100.00
21658;BME280;10990;48.174;9.782;2023-06-22T09:46:17;95787.38;;;32.68;100.00
21658;BME280;10990;48.174;9.782;2023-06-22T09:48:43;95782.44;;;31.76;100.00
21658;BME280;10990;48.174;9.782;2023-06-22T09:51:11;95781.78;;;31.34;100.00
21658;BME280;10990;48.174;9.782;2023-06-22T09:53:38;95783.72;;;31.23;100.00
21658;BME280;10990;48.174;9.782;2023-06-22T09:56:05;95781.88;;;30.93;100.00
21658;BME280;10990;48.174;9.782;2023-06-22T09:58:31;95766.72;;;31.47;100.00
21658;BME280;10990;48.174;9.782;2023-06-22T10:00:59;95769.28;;;31.02;100.00
21658;BME280;10990;48.174;9.782;2023-06-22T10:03:26;95759.53;;;31.66;100.00
21658;BME280;10990;48.174;9.782;2023-06-22T10:05:53;95757.38;;;31.63;100.00
21658;BME280;10990;48.174;9.782;2023-06-22T10:08:20;95759.91;;;31.44;100.00
21658;BME280;10990;48.174;9.782;2023-06-22T10:10:46;95756.13;;;31.90;100.00
21658;BME280;10990;48.174;9.782;2023-06-22T10:13:13;95753.38;;;31.40;100.00
21658;BME280;10990;48.174;9.782;2023-06-22T10:15:40;95752.88;;;31.83;100.00
21658;BME280;10990;48.174;9.782;2023-06-22T10:18:09;95759.97;;;31.94;100.00
21658;BME280;10990;48.174;9.782;2023-06-22T10:20:36;95747.91;;;32.34;100.00
21658;BME280;10990;48.174;9.782;2023-06-22T10:23:03;95745.47;;;31.23;100.00
21658;BME280;10990;48.174;9.782;2023-06-22T10:25:30;95748.63;;;31.61;100.00
21658;BME280;10990;48.174;9.782;2023-06-22T10:27:56;95735.66;;;29.84;100.00
21658;BME280;10990;48.174;9.782;2023-06-22T10:30:23;95726.19;;;29.19;100.00
21658;BME280;10990;48.174;9.782;2023-06-22T10:32:50;95717.44;;;30.21;100.00
21658;BME280;10990;48.174;9.782;2023-06-22T10:35:18;95710.34;;;30.20;100.00
21658;BME280;10990;48.174;9.782;2023-06-22T10:37:46;95706.22;;;29.71;100.00
21658;BME280;10990;48.174;9.782;2023-06-22T10:40:14;95709.38;;;31.26;100.00
21658;BME280;10990;48.174;9.782;2023-06-22T10:42:41;95714.81;;;31.97;100.00
21658;BME280;10990;48.174;9.782;2023-06-22T10:45:08;95716.97;;;32.34;100.00
21658;BME280;10990;48.174;9.782;2023-06-22T10:47:35;95713.00;;;32.55;100.00
21658;BME280;10990;48.174;9.782;2023-06-22T10:50:04;95720.81;;;32.67;100.00
21658;BME280;10990;48.174;9.782;2023-06-22T10:52:32;95711.34;;;32.84;100.00
21658;BME280;10990;48.174;9.782;2023-06-22T10:54:58;95707.38;;;32.71;100.00
21658;BME280;10990;48.174;9.782;2023-06-22T10:57:25;95705.19;;;32.68;100.00
21658;BME280;10990;48.174;9.782;2023-06-22T10:59:52;95705.69;;;32.75;100.00
21658;BME280;10990;48.174;9.782;2023-06-22T11:02:19;95705.31;;;32.18;100.00
21658;BME280;10990;48.174;9.782;2023-06-22T11:04:45;95702.66;;;30.93;100.00
21658;BME280;10990;48.174;9.782;2023-06-22T11:07:13;95694.81;;;30.51;100.00
21658;BME280;10990;48.174;9.782;2023-06-22T11:09:42;95688.03;;;31.39;100.00
21658;BME280;10990;48.174;9.782;2023-06-22T11:12:09;95702.56;;;32.23;100.00
21658;BME280;10990;48.174;9.782;2023-06-22T11:14:36;95702.50;;;32.92;100.00
21658;BME280;10990;48.174;9.782;2023-06-22T11:17:03;95701.88;;;32.71;100.00
21658;BME280;10990;48.174;9.782;2023-06-22T11:19:30;95692.00;;;32.06;100.00
21658;BME280;10990;48.174;9.782;2023-06-22T11:21:56;95682.78;;;32.31;100.00
21658;BME280;10990;48.174;9.782;2023-06-22T11:24:23;95683.38;;;31.39;100.00
21658;BME280;10990;48.174;9.782;2023-06-22T11:26:51;95690.22;;;32.26;100.00
21658;BME280;10990;48.174;9.782;2023-06-22T11:29:18;95688.88;;;32.23;100.00
21658;BME280;10990;48.174;9.782;2023-06-22T11:31:44;95684.22;;;32.24;100.00
21658;BME280;10990;48.174;9.782;2023-06-22T11:34:11;95689.97;;;32.56;100.00
21658;BME280;10990;48.174;9.782;2023-06-22T11:36:38;95690.25;;;32.55;100.00
21658;BME280;10990;48.174;9.782;2023-06-22T11:39:05;95690.13;;;32.70;100.00
21658;BME280;10990;48.174;9.782;2023-06-22T11:41:32;95683.06;;;32.64;100.00
21658;BME280;10990;48.174;9.782;2023-06-22T11:44:00;95697.69;;;32.49;100.00
21658;BME280;10990;48.174;9.782;2023-06-22T11:46:26;95695.16;;;31.84;100.00
21658;BME280;10990;48.174;9.782;2023-06-22T11:48:53;95691.66;;;32.52;100.00
21658;BME280;10990;48.174;9.782;2023-06-22T11:51:23;95692.50;;;32.77;100.00
21658;BME280;10990;48.174;9.782;2023-06-22T11:53:50;95691.66;;;32.81;100.00
21658;BME280;10990;48.174;9.782;2023-06-22T11:56:17;95682.03;;;32.55;100.00
21658;BME280;10990;48.174;9.782;2023-06-22T11:58:43;95682.03;;;32.55;100.00
21658;BME280;10990;48.174;9.782;2023-06-22T12:01:12;95685.31;;;32.57;100.00
21658;BME280;10990;48.174;9.782;2023-06-22T12:03:40;95691.59;;;32.23;100.00
21658;BME280;10990;48.174;9.782;2023-06-22T12:06:08;95691.13;;;32.16;100.00
21658;BME280;10990;48.174;9.782;2023-06-22T12:08:35;95691.31;;;32.59;100.00
21658;BME280;10990;48.174;9.782;2023-06-22T12:11:02;95688.78;;;32.33;100.00
21658;BME280;10990;48.174;9.782;2023-06-22T12:13:28;95686.63;;;32.65;100.00
21658;BME280;10990;48.174;9.782;2023-06-22T12:15:55;95674.50;;;32.71;100.00
21658;BME280;10990;48.174;9.782;2023-06-22T12:18:23;95673.63;;;32.46;100.00
21658;BME280;10990;48.174;9.782;2023-06-22T12:20:50;95683.78;;;32.41;100.00
21658;BME280;10990;48.174;9.782;2023-06-22T12:23:17;95681.53;;;32.53;100.00
21658;BME280;10990;48.174;9.782;2023-06-22T12:25:45;95671.97;;;31.77;100.00
21658;BME280;10990;48.174;9.782;2023-06-22T12:28:12;95669.59;;;32.04;100.00
21658;BME280;10990;48.174;9.782;2023-06-22T12:30:39;95660.91;;;32.26;100.00
21658;BME280;10990;48.174;9.782;2023-06-22T12:33:06;95665.88;;;32.58;100.00
21658;BME280;10990;48.174;9.782;2023-06-22T12:35:34;95669.75;;;32.52;100.00
21658;BME280;10990;48.174;9.782;2023-06-22T12:38:01;95647.97;;;32.37;100.00
21658;BME280;10990;48.174;9.782;2023-06-22T12:40:28;95645.47;;;32.11;100.00
21658;BME280;10990;48.174;9.782;2023-06-22T12:42:55;95648.03;;;31.98;100.00
21658;BME280;10990;48.174;9.782;2023-06-22T12:45:21;95649.47;;;32.24;100.00
21658;BME280;10990;48.174;9.782;2023-06-22T12:47:48;95652.84;;;32.40;100.00
21658;BME280;10990;48.174;9.782;2023-06-22T12:50:15;95661.28;;;32.49;100.00
21658;BME280;10990;48.174;9.782;2023-06-22T12:52:43;95660.56;;;32.67;100.00